createdAt,value
2018-05-29T00:02:01.435Z,8.97
2018-05-29T00:04:27.667Z,6.67
2018-05-29T00:06:53.945Z,8.03
2018-05-29T00:09:20.258Z,12.03
2018-05-29T00:11:46.519Z,9.43
2018-05-29T00:14:12.768Z,5.27
2018-05-29T00:16:39.758Z,7.07
2018-05-29T00:19:06.025Z,7.03
2018-05-29T00:21:32.348Z,4.93
2018-05-29T00:23:59.323Z,5.53
2018-05-29T00:26:25.603Z,9.00
2018-05-29T00:28:51.910Z,4.90
2018-05-29T00:31:18.465Z,9.40
2018-05-29T00:33:45.474Z,7.73
2018-05-29T00:36:11.700Z,6.60
2018-05-29T00:38:38.010Z,8.53
2018-05-29T00:41:04.280Z,9.73
2018-05-29T00:43:30.880Z,9.27
2018-05-29T00:45:57.153Z,8.50
2018-05-29T00:48:24.188Z,7.60
2018-05-29T00:50:50.424Z,11.23
2018-05-29T00:53:16.663Z,5.97
2018-05-29T00:55:42.903Z,7.83
2018-05-29T00:58:09.128Z,7.87
2018-05-29T01:00:35.379Z,9.70
2018-05-29T01:03:02.348Z,7.50
2018-05-29T01:05:29.368Z,8.37
2018-05-29T01:07:55.603Z,7.43
2018-05-29T01:10:21.888Z,7.60
2018-05-29T01:12:48.150Z,7.73
2018-05-29T01:15:14.744Z,6.27
2018-05-29T01:17:41.803Z,6.70
2018-05-29T01:20:08.073Z,7.73
2018-05-29T01:22:35.102Z,8.03
2018-05-29T01:25:01.720Z,6.03
2018-05-29T01:27:29.071Z,7.80
2018-05-29T01:29:55.346Z,10.00
2018-05-29T01:32:21.591Z,9.17
2018-05-29T01:34:48.589Z,9.43
2018-05-29T01:37:14.866Z,7.90
2018-05-29T01:39:41.136Z,9.70
2018-05-29T01:42:08.111Z,7.70
2018-05-29T01:44:34.350Z,11.07
2018-05-29T01:47:00.974Z,4.77
2018-05-29T01:49:27.951Z,6.87
2018-05-29T01:51:54.176Z,7.60
2018-05-29T01:54:20.401Z,7.60
2018-05-29T01:56:46.667Z,4.80
2018-05-29T01:59:12.916Z,9.93
2018-05-29T02:01:39.951Z,7.70
2018-05-29T02:04:06.921Z,7.43
2018-05-29T02:06:33.151Z,6.97
2018-05-29T02:08:59.426Z,6.30
2018-05-29T02:11:26.409Z,7.20
2018-05-29T02:13:52.633Z,4.70
2018-05-29T02:16:19.618Z,5.80
2018-05-29T02:18:45.838Z,8.57
2018-05-29T02:21:12.093Z,5.27
2018-05-29T02:23:38.329Z,5.73
2018-05-29T02:26:04.580Z,8.97
2018-05-29T02:28:30.863Z,7.60
2018-05-29T02:30:57.829Z,7.30
2018-05-29T02:33:24.440Z,7.83
2018-05-29T02:35:50.703Z,8.83
2018-05-29T02:38:17.305Z,4.97
2018-05-29T02:40:43.590Z,9.03
2018-05-29T02:43:09.836Z,8.93
2018-05-29T02:45:36.072Z,7.37
2018-05-29T02:48:02.297Z,4.77
2018-05-29T02:50:28.616Z,5.60
2018-05-29T02:52:55.621Z,6.27
2018-05-29T02:55:21.898Z,6.00
2018-05-29T02:57:48.490Z,7.07
2018-05-29T03:00:14.735Z,6.07
2018-05-29T03:02:40.954Z,8.17
2018-05-29T03:05:07.219Z,4.53
2018-05-29T03:07:34.204Z,4.97
2018-05-29T03:10:01.189Z,5.17
2018-05-29T03:12:27.419Z,5.43
2018-05-29T03:14:53.636Z,10.13
2018-05-29T03:17:19.905Z,6.93
2018-05-29T03:19:46.124Z,6.70
2018-05-29T03:22:12.435Z,4.93
2018-05-29T03:24:39.049Z,4.43
2018-05-29T03:27:05.339Z,4.63
2018-05-29T03:29:31.974Z,5.73
2018-05-29T03:31:58.221Z,6.33
2018-05-29T03:34:24.454Z,3.90
2018-05-29T03:36:50.731Z,5.10
2018-05-29T03:39:16.988Z,5.73
2018-05-29T03:41:43.234Z,6.23
2018-05-29T03:44:10.200Z,5.27
2018-05-29T03:46:36.449Z,6.33
2018-05-29T03:49:02.699Z,7.03
2018-05-29T03:51:28.930Z,4.13
2018-05-29T03:53:55.214Z,5.97
2018-05-29T03:56:21.785Z,5.27
2018-05-29T03:58:48.444Z,3.67
2018-05-29T04:01:14.680Z,6.97
2018-05-29T04:03:40.901Z,6.17
2018-05-29T04:06:07.151Z,6.30
2018-05-29T04:08:33.379Z,9.50
2018-05-29T04:10:59.606Z,6.97
2018-05-29T04:13:26.257Z,8.53
2018-05-29T04:15:52.565Z,6.80
2018-05-29T04:18:18.801Z,6.40
2018-05-29T04:20:45.820Z,7.03
2018-05-29T04:23:12.033Z,7.30
2018-05-29T04:25:38.260Z,5.27
2018-05-29T04:28:04.891Z,7.20
2018-05-29T04:30:31.140Z,7.00
2018-05-29T04:32:57.411Z,5.43
2018-05-29T04:35:24.356Z,5.80
2018-05-29T04:37:50.607Z,6.03
2018-05-29T04:40:17.177Z,5.80
2018-05-29T04:42:44.184Z,6.37
2018-05-29T04:45:21.016Z,5.37
2018-05-29T04:47:47.986Z,5.60
2018-05-29T04:50:14.261Z,5.00
2018-05-29T04:52:40.552Z,5.40
2018-05-29T04:55:06.770Z,4.47
2018-05-29T04:57:33.795Z,5.70
2018-05-29T05:00:00.001Z,7.50
2018-05-29T05:02:27.445Z,6.40
2018-05-29T05:04:53.631Z,5.53
2018-05-29T05:07:20.235Z,7.47
2018-05-29T05:09:46.488Z,5.47
2018-05-29T05:12:12.759Z,11.10
2018-05-29T05:14:39.755Z,5.13
2018-05-29T05:17:05.973Z,5.50
2018-05-29T05:19:32.232Z,7.73
2018-05-29T05:21:58.463Z,6.63
2018-05-29T05:24:24.728Z,6.30
2018-05-29T05:26:51.696Z,3.50
2018-05-29T05:29:17.937Z,10.27
2018-05-29T05:31:44.193Z,4.30
2018-05-29T05:34:10.795Z,7.97
2018-05-29T05:36:37.036Z,4.80
2018-05-29T05:39:03.395Z,9.43
2018-05-29T05:41:29.616Z,6.00
2018-05-29T05:43:55.894Z,5.93
2018-05-29T05:46:22.128Z,4.07
2018-05-29T05:48:48.750Z,6.20
2018-05-29T05:51:15.795Z,5.13
2018-05-29T05:53:42.036Z,5.63
2018-05-29T05:56:08.626Z,5.03
2018-05-29T05:58:34.962Z,5.03
2018-05-29T06:01:01.981Z,7.80
2018-05-29T06:03:29.012Z,10.80
2018-05-29T06:05:55.255Z,6.87
2018-05-29T06:08:21.900Z,8.60
2018-05-29T06:10:48.487Z,5.60
2018-05-29T06:13:14.755Z,5.80
2018-05-29T06:15:41.018Z,4.17
2018-05-29T06:18:07.637Z,6.30
2018-05-29T06:20:33.892Z,5.33
2018-05-29T06:23:00.137Z,5.10
2018-05-29T06:25:27.182Z,3.80
2018-05-29T06:27:53.465Z,9.13
2018-05-29T06:30:19.737Z,9.13
2018-05-29T06:32:45.991Z,5.47
2018-05-29T06:35:12.251Z,6.07
2018-05-29T06:37:38.516Z,11.37
2018-05-29T06:40:04.841Z,12.13
2018-05-29T06:42:31.065Z,12.97
2018-05-29T06:44:57.773Z,10.13
2018-05-29T06:47:24.332Z,11.67
2018-05-29T06:49:51.291Z,11.83
2018-05-29T06:52:17.910Z,12.90
2018-05-29T06:54:44.157Z,10.63
2018-05-29T06:57:10.437Z,10.67
2018-05-29T06:59:36.706Z,12.30
2018-05-29T07:02:02.942Z,14.27
2018-05-29T07:04:29.166Z,11.33
2018-05-29T07:06:55.800Z,14.37
2018-05-29T07:09:28.062Z,13.03
2018-05-29T07:11:54.367Z,11.77
2018-05-29T07:14:21.345Z,12.23
2018-05-29T07:16:47.577Z,10.83
2018-05-29T07:19:13.803Z,12.30
2018-05-29T07:21:40.091Z,15.10
2018-05-29T07:24:07.101Z,9.47
2018-05-29T07:26:33.421Z,8.63
2018-05-29T07:29:00.413Z,12.93
2018-05-29T07:31:26.697Z,13.20
2018-05-29T07:33:53.687Z,12.77
2018-05-29T07:36:19.939Z,10.37
2018-05-29T07:38:46.941Z,11.20
2018-05-29T07:41:13.947Z,10.17
2018-05-29T07:43:40.231Z,8.67
2018-05-29T07:46:06.851Z,9.53
2018-05-29T07:48:33.886Z,13.17
2018-05-29T07:51:00.141Z,16.20
2018-05-29T07:53:26.426Z,11.93
2018-05-29T07:55:52.701Z,11.30
2018-05-29T07:58:18.983Z,10.73
2018-05-29T08:00:45.975Z,12.00
2018-05-29T08:03:12.216Z,10.40
2018-05-29T08:05:38.502Z,10.40
2018-05-29T08:08:05.487Z,13.83
2018-05-29T08:10:31.769Z,12.23
2018-05-29T08:12:58.047Z,13.40
2018-05-29T08:15:24.314Z,11.47
2018-05-29T08:17:51.272Z,14.73
2018-05-29T08:20:17.578Z,11.43
2018-05-29T08:22:43.827Z,11.63
2018-05-29T08:25:10.071Z,8.67
2018-05-29T08:27:37.053Z,13.60
2018-05-29T08:30:03.332Z,11.70
2018-05-29T08:32:29.577Z,10.37
2018-05-29T08:34:55.808Z,13.47
2018-05-29T08:37:22.067Z,12.03
2018-05-29T08:39:49.039Z,13.90
2018-05-29T08:42:15.330Z,9.20
2018-05-29T08:44:41.599Z,17.27
2018-05-29T08:47:07.902Z,15.60
2018-05-29T08:49:34.148Z,11.27
2018-05-29T08:52:00.387Z,12.47
2018-05-29T08:54:26.646Z,13.47
2018-05-29T08:56:52.893Z,15.73
2018-05-29T08:59:19.151Z,11.47
2018-05-29T09:01:45.855Z,13.70
2018-05-29T09:04:12.071Z,17.27
2018-05-29T09:06:38.333Z,11.80
2018-05-29T09:09:04.963Z,15.70
2018-05-29T09:11:31.218Z,14.53
2018-05-29T09:13:57.884Z,11.40
2018-05-29T09:16:24.152Z,12.20
2018-05-29T09:18:51.244Z,10.40
2018-05-29T09:21:17.488Z,15.27
2018-05-29T09:23:43.772Z,10.77
2018-05-29T09:26:10.786Z,15.93
2018-05-29T09:28:37.394Z,12.53
2018-05-29T09:31:03.695Z,14.00
2018-05-29T09:33:30.693Z,13.53
2018-05-29T09:35:56.972Z,14.83
2018-05-29T09:38:24.033Z,13.67
2018-05-29T09:40:51.322Z,12.30
2018-05-29T09:43:17.958Z,12.97
2018-05-29T09:45:44.256Z,12.43
2018-05-29T09:48:10.479Z,8.43
2018-05-29T09:50:36.774Z,11.77
2018-05-29T09:53:03.054Z,11.17
2018-05-29T09:55:29.294Z,14.50
2018-05-29T09:57:55.548Z,11.43
2018-05-29T10:00:28.025Z,11.13
2018-05-29T10:02:54.299Z,13.67
2018-05-29T10:05:21.527Z,16.03
2018-05-29T10:07:48.468Z,13.73
2018-05-29T10:10:14.746Z,14.23
2018-05-29T10:12:41.033Z,11.20
2018-05-29T10:15:07.316Z,14.93
2018-05-29T10:17:33.572Z,13.20
2018-05-29T10:20:00.647Z,11.50
2018-05-29T10:22:26.878Z,14.73
2018-05-29T10:24:53.179Z,13.67
2018-05-29T10:27:19.408Z,11.20
2018-05-29T10:29:46.122Z,11.30
2018-05-29T10:32:12.324Z,10.63
2018-05-29T10:34:38.600Z,14.23
2018-05-29T10:37:05.273Z,9.43
2018-05-29T10:39:31.533Z,11.57
2018-05-29T10:41:57.774Z,13.27
2018-05-29T10:44:23.988Z,10.53
2018-05-29T10:46:50.279Z,16.97
2018-05-29T10:49:16.545Z,11.47
2018-05-29T10:51:42.827Z,13.83
2018-05-29T10:54:09.085Z,12.27
2018-05-29T10:56:35.348Z,12.33
2018-05-29T10:59:01.625Z,13.57
2018-05-29T11:01:28.636Z,12.03
2018-05-29T11:03:54.883Z,14.43
2018-05-29T11:06:21.148Z,15.93
2018-05-29T11:08:48.138Z,11.13
2018-05-29T11:11:15.155Z,10.73
2018-05-29T11:13:41.467Z,9.97
2018-05-29T11:16:07.714Z,13.10
2018-05-29T11:18:34.010Z,11.07
2018-05-29T11:21:01.063Z,13.10
2018-05-29T11:23:28.070Z,10.10
2018-05-29T11:25:54.372Z,8.87
2018-05-29T11:28:20.653Z,10.13
2018-05-29T11:30:46.881Z,14.10
2018-05-29T11:33:13.132Z,10.50
2018-05-29T11:35:39.749Z,13.03
2018-05-29T11:38:06.037Z,10.90
2018-05-29T11:40:32.969Z,11.50
2018-05-29T11:42:59.265Z,9.83
2018-05-29T11:45:25.543Z,8.17
2018-05-29T11:47:52.203Z,12.03
2018-05-29T11:50:18.518Z,8.43
2018-05-29T11:52:44.790Z,10.80
2018-05-29T11:55:11.801Z,11.13
2018-05-29T11:57:38.063Z,8.50
2018-05-29T12:00:04.349Z,12.30
2018-05-29T12:02:30.604Z,12.10
2018-05-29T12:04:56.888Z,9.43
2018-05-29T12:07:23.903Z,8.87
2018-05-29T12:09:50.194Z,12.40
2018-05-29T12:12:25.322Z,10.37
2018-05-29T12:14:52.424Z,9.07
2018-05-29T12:17:18.717Z,9.20
2018-05-29T12:19:44.989Z,10.70
2018-05-29T12:22:11.263Z,16.27
2018-05-29T12:24:37.644Z,12.07
2018-05-29T12:27:03.979Z,9.87
2018-05-29T12:29:30.253Z,15.00
2018-05-29T12:31:56.878Z,11.00
2018-05-29T12:34:23.903Z,14.63
2018-05-29T12:36:50.242Z,10.47
2018-05-29T12:39:16.493Z,12.67
2018-05-29T12:41:42.818Z,11.13
2018-05-29T12:44:09.805Z,15.20
2018-05-29T12:46:36.060Z,13.97
2018-05-29T12:49:02.322Z,10.77
2018-05-29T12:51:29.305Z,13.43
2018-05-29T12:53:55.595Z,12.83
2018-05-29T12:56:21.868Z,9.83
2018-05-29T12:58:48.128Z,12.30
2018-05-29T13:01:14.384Z,13.20
2018-05-29T13:03:40.698Z,10.00
2018-05-29T13:06:08.115Z,13.47
2018-05-29T13:08:35.136Z,11.63
2018-05-29T13:11:01.379Z,13.47
2018-05-29T13:13:27.663Z,12.20
2018-05-29T13:15:53.908Z,9.27
2018-05-29T13:18:20.176Z,15.53
2018-05-29T13:20:46.410Z,14.83
2018-05-29T13:23:12.715Z,16.77
2018-05-29T13:25:38.984Z,13.80
2018-05-29T13:28:05.656Z,11.63
2018-05-29T13:30:32.708Z,16.83
2018-05-29T13:32:58.943Z,12.50
2018-05-29T13:35:25.598Z,15.83
2018-05-29T13:37:52.609Z,19.47
2018-05-29T13:40:18.923Z,25.57
2018-05-29T13:42:45.233Z,17.37
2018-05-29T13:45:12.294Z,17.00
2018-05-29T13:47:38.579Z,21.93
2018-05-29T13:50:05.959Z,21.90
2018-05-29T13:52:32.271Z,25.00
2018-05-29T13:54:58.579Z,31.27
2018-05-29T13:57:25.245Z,37.37
2018-05-29T13:59:51.504Z,32.37
2018-05-29T14:02:17.799Z,23.43
2018-05-29T14:04:44.137Z,25.20
2018-05-29T14:07:10.440Z,25.97
2018-05-29T14:09:37.100Z,17.23
2018-05-29T14:12:04.213Z,21.83
2018-05-29T14:14:30.454Z,17.77
2018-05-29T14:16:56.734Z,21.93
2018-05-29T14:19:23.774Z,27.93
2018-05-29T14:21:50.808Z,19.60
2018-05-29T14:24:17.449Z,30.63
2018-05-29T14:26:44.139Z,21.43
2018-05-29T14:29:10.422Z,25.23
2018-05-29T14:31:36.683Z,20.97
2018-05-29T14:36:57.680Z,19.43
2018-05-29T14:39:23.920Z,30.50
2018-05-29T14:41:50.148Z,21.37
2018-05-29T14:44:16.491Z,15.77
2018-05-29T14:46:42.704Z,21.77
2018-05-29T14:49:09.783Z,16.67
2018-05-29T14:51:36.063Z,16.63
2018-05-29T14:54:02.340Z,16.73
2018-05-29T14:56:29.399Z,18.87
2018-05-29T14:58:55.649Z,17.13
2018-05-29T15:03:59.594Z,11.90
2018-05-29T15:06:26.579Z,14.07
2018-05-29T15:08:52.922Z,14.03
2018-05-29T15:11:19.192Z,10.93
2018-05-29T15:13:45.455Z,11.17
2018-05-29T15:16:11.762Z,12.93
2018-05-29T15:18:38.427Z,14.73
2018-05-29T15:21:04.660Z,15.27
2018-05-29T15:23:30.925Z,13.73
2018-05-29T15:25:57.934Z,11.90
2018-05-29T15:28:24.223Z,11.10
2018-05-29T15:30:50.484Z,16.40
2018-05-29T15:33:16.774Z,12.10
2018-05-29T15:35:43.380Z,15.73
2018-05-29T15:38:10.850Z,13.53
2018-05-29T15:40:37.099Z,13.67
2018-05-29T15:43:03.821Z,18.43
2018-05-29T15:45:30.064Z,10.77
2018-05-29T15:47:56.340Z,14.40
2018-05-29T15:50:23.355Z,12.77
2018-05-29T15:52:50.625Z,13.47
2018-05-29T15:55:17.275Z,10.67
2018-05-29T15:57:43.544Z,14.10
2018-05-29T16:00:10.586Z,11.07
2018-05-29T16:02:38.599Z,11.60
2018-05-29T16:05:04.939Z,16.57
2018-05-29T16:07:31.209Z,15.87
2018-05-29T16:09:57.529Z,17.80
2018-05-29T16:12:23.740Z,11.60
2018-05-29T16:14:50.135Z,15.37
2018-05-29T16:17:16.808Z,14.93
2018-05-29T16:19:43.861Z,12.53
2018-05-29T16:22:10.229Z,20.67
2018-05-29T16:24:36.915Z,15.90
2018-05-29T16:27:03.207Z,15.77
2018-05-29T16:29:29.854Z,14.47
2018-05-29T16:31:56.160Z,20.40
2018-05-29T16:34:22.775Z,18.83
2018-05-29T16:36:49.082Z,13.30
2018-05-29T16:39:15.365Z,14.73
2018-05-29T16:41:42.414Z,14.93
2018-05-29T16:44:09.450Z,13.10
2018-05-29T16:46:35.780Z,16.10
2018-05-29T16:49:02.053Z,14.20
2018-05-29T16:51:29.075Z,11.13
2018-05-29T16:53:55.789Z,11.20
2018-05-29T16:56:22.148Z,13.90
2018-05-29T16:58:48.777Z,16.90
2018-05-29T17:01:15.060Z,11.47
2018-05-29T17:03:42.096Z,11.17
2018-05-29T17:06:08.371Z,11.20
2018-05-29T17:08:34.664Z,12.80
2018-05-29T17:11:01.376Z,13.77
2018-05-29T17:13:27.668Z,10.77
2018-05-29T17:15:54.354Z,14.90
2018-05-29T17:18:20.710Z,10.00
2018-05-29T17:20:47.001Z,9.80
2018-05-29T17:23:14.015Z,11.30
2018-05-29T17:25:40.270Z,12.23
2018-05-29T17:28:07.310Z,12.30
2018-05-29T17:30:34.001Z,12.23
2018-05-29T17:33:00.365Z,13.67
2018-05-29T17:35:27.415Z,10.20
2018-05-29T17:37:53.742Z,10.17
2018-05-29T17:40:20.045Z,10.10
2018-05-29T17:42:47.075Z,8.27
2018-05-29T17:45:13.370Z,8.73
2018-05-29T17:47:39.760Z,9.53
2018-05-29T17:50:06.901Z,10.77
2018-05-29T17:52:33.180Z,10.87
2018-05-29T17:55:00.223Z,9.30
2018-05-29T17:57:27.432Z,12.17
2018-05-29T17:59:53.760Z,14.10
2018-05-29T18:02:20.543Z,14.27
2018-05-29T18:04:47.680Z,15.13
2018-05-29T18:07:14.154Z,13.00
2018-05-29T18:09:40.571Z,11.47
2018-05-29T18:12:07.072Z,13.43
2018-05-29T18:14:34.325Z,16.60
2018-05-29T18:17:00.638Z,15.70
2018-05-29T18:19:27.293Z,16.53
2018-05-29T18:21:53.946Z,15.30
2018-05-29T18:24:20.229Z,19.80
2018-05-29T18:26:47.299Z,20.53
2018-05-29T18:29:13.572Z,16.33
2018-05-29T18:31:39.841Z,21.97
2018-05-29T18:34:06.193Z,16.73
2018-05-29T18:36:32.511Z,24.10
2018-05-29T18:38:58.907Z,29.63
2018-05-29T18:41:26.062Z,19.07
2018-05-29T18:43:53.077Z,21.53
2018-05-29T18:46:19.720Z,16.70
2018-05-29T18:48:46.090Z,33.83
2018-05-29T18:51:13.154Z,16.00
2018-05-29T18:53:40.209Z,17.47
2018-05-29T18:56:06.941Z,22.87
2018-05-29T18:58:33.359Z,27.73
2018-05-29T19:01:00.063Z,20.67
2018-05-29T19:03:27.217Z,18.90
2018-05-29T19:05:53.461Z,17.47
2018-05-29T19:08:20.476Z,17.40
2018-05-29T19:10:47.513Z,19.93
2018-05-29T19:13:13.862Z,18.53
2018-05-29T19:15:40.638Z,17.37
2018-05-29T19:18:06.940Z,23.27
2018-05-29T19:20:33.636Z,21.73
2018-05-29T19:23:00.407Z,21.27
2018-05-29T19:25:26.628Z,15.63
2018-05-29T19:27:53.332Z,19.30
2018-05-29T19:30:20.376Z,21.73
2018-05-29T19:32:46.704Z,14.43
2018-05-29T19:35:13.012Z,12.13
2018-05-29T19:37:39.311Z,14.43
2018-05-29T19:40:06.008Z,14.77
2018-05-29T19:42:32.260Z,16.00
2018-05-29T19:44:59.321Z,15.10
2018-05-29T19:47:26.000Z,16.57
2018-05-29T19:49:52.306Z,12.83
2018-05-29T19:52:18.641Z,12.37
2018-05-29T19:54:44.950Z,11.90
2018-05-29T19:57:11.588Z,11.70
2018-05-29T19:59:38.289Z,14.27
2018-05-29T20:02:04.567Z,11.00
2018-05-29T20:04:30.888Z,14.13
2018-05-29T20:06:58.013Z,15.23
2018-05-29T20:09:25.053Z,11.97
2018-05-29T20:11:52.084Z,10.77
2018-05-29T20:14:18.442Z,16.33
2018-05-29T20:16:45.107Z,16.37
2018-05-29T20:19:12.145Z,15.53
2018-05-29T20:21:39.178Z,13.37
2018-05-29T20:24:05.856Z,11.97
2018-05-29T20:26:32.845Z,11.83
2018-05-29T20:28:59.171Z,11.20
2018-05-29T20:31:25.755Z,12.90
2018-05-29T20:33:52.061Z,15.20
2018-05-29T20:36:18.374Z,14.33
2018-05-29T20:38:45.040Z,17.20
2018-05-29T20:41:11.388Z,12.90
2018-05-29T20:43:37.697Z,13.57
2018-05-29T20:46:04.045Z,16.63
2018-05-29T20:48:30.698Z,15.00
2018-05-29T20:50:57.022Z,11.17
2018-05-29T20:53:23.290Z,12.27
2018-05-29T20:55:49.584Z,16.73
2018-05-29T20:58:18.691Z,9.77
2018-05-29T21:00:45.413Z,13.93
2018-05-29T21:03:12.347Z,14.13
2018-05-29T21:05:39.648Z,17.40
2018-05-29T21:08:06.032Z,13.20
2018-05-29T21:10:32.456Z,11.80
2018-05-29T21:12:58.836Z,14.47
2018-05-29T21:15:25.566Z,15.77
2018-05-29T21:17:51.931Z,14.43
2018-05-29T21:20:19.175Z,12.37
2018-05-29T21:22:45.828Z,9.07
2018-05-29T21:25:13.125Z,11.93
2018-05-29T21:27:39.396Z,10.27
2018-05-29T21:30:06.381Z,12.07
2018-05-29T21:32:33.892Z,13.87
2018-05-29T21:35:00.152Z,13.73
2018-05-29T21:37:26.967Z,13.40
2018-05-29T21:39:53.591Z,10.17
2018-05-29T21:42:20.803Z,12.13
2018-05-29T21:44:47.978Z,11.63
2018-05-29T21:47:14.723Z,12.97
2018-05-29T21:49:41.403Z,13.13
2018-05-29T21:52:08.499Z,8.33
2018-05-29T21:54:35.551Z,14.57
2018-05-29T21:57:01.832Z,14.43
2018-05-29T21:59:28.629Z,9.23
2018-05-29T22:01:55.714Z,12.27
2018-05-29T22:04:22.460Z,14.10
2018-05-29T22:06:50.007Z,10.03
2018-05-29T22:09:17.683Z,9.63
2018-05-29T22:11:44.763Z,9.30
2018-05-29T22:14:11.368Z,10.53
2018-05-29T22:16:37.663Z,9.93
2018-05-29T22:19:04.253Z,8.70
2018-05-29T22:21:32.266Z,10.10
2018-05-29T22:23:58.963Z,6.60
2018-05-29T22:26:25.808Z,6.63
2018-05-29T22:28:52.493Z,7.33
2018-05-29T22:33:53.532Z,14.43
2018-05-29T22:36:19.847Z,11.93
2018-05-29T22:38:46.088Z,12.53
2018-05-29T22:41:13.160Z,15.20
2018-05-29T22:43:39.424Z,10.03
2018-05-29T22:46:05.706Z,23.43
2018-05-29T22:48:32.013Z,11.43
2018-05-29T22:50:58.649Z,9.90
2018-05-29T22:53:25.663Z,16.00
2018-05-29T22:55:52.369Z,9.43
2018-05-29T22:58:19.213Z,20.07
2018-05-29T23:00:45.519Z,12.33
2018-05-29T23:03:12.187Z,12.20
2018-05-29T23:05:39.236Z,28.20
2018-05-29T23:08:05.535Z,10.47
2018-05-29T23:10:32.183Z,11.80
2018-05-29T23:12:58.524Z,16.97
2018-05-29T23:15:25.174Z,15.53
2018-05-29T23:17:51.505Z,12.10
2018-05-29T23:20:18.147Z,15.90
2018-05-29T23:22:44.471Z,12.90
2018-05-29T23:25:11.869Z,17.47
2018-05-29T23:27:38.476Z,22.70
2018-05-29T23:30:05.187Z,14.13
2018-05-29T23:32:32.192Z,18.97
2018-05-29T23:34:58.452Z,12.17
2018-05-29T23:37:24.703Z,26.00
2018-05-29T23:39:51.017Z,11.63
2018-05-29T23:42:17.213Z,11.53
2018-05-29T23:44:43.488Z,25.83
2018-05-29T23:47:09.732Z,10.40
2018-05-29T23:49:36.822Z,13.57
2018-05-29T23:52:03.154Z,12.63
2018-05-29T23:54:29.514Z,10.80
2018-05-29T23:56:56.553Z,10.37
2018-05-29T23:59:22.788Z,18.50
